Time;durP1;ratioP1;P1;durP2;ratioP2;P2;SDS_P1;SDS_P2;PMS_P1;PMS_P2;Temp;Humidity;BMP_temperature;BMP_pressure;BME280_temperature;BME280_humidity;BME280_pressure;Samples;Min_cycle;Max_cycle;Signal;HPM_P1;HPM_P2
2021/05/24 00:00:42;;;;;;;0.60;0.60;;;;;;;7.63;64.31;96442.84;5087082;28;20032;-75
2021/05/24 00:03:08;;;;;;;0.82;0.60;;;;;;;7.60;64.58;96440.66;5084074;28;20043;-75
2021/05/24 00:05:35;;;;;;;0.60;0.60;;;;;;;7.58;64.55;96441.84;5080482;28;20062;-75
2021/05/24 00:08:03;;;;;;;0.47;0.47;;;;;;;7.55;64.63;96437.03;5082167;28;20047;-75
2021/05/24 00:10:41;;;;;;;0.82;0.68;;;;;;;7.53;64.72;96421.56;5080681;28;20051;-75
2021/05/24 00:13:10;;;;;;;0.93;0.90;;;;;;;7.49;64.66;96420.34;5088430;28;20040;-75
2021/05/24 00:15:39;;;;;;;0.70;0.70;;;;;;;7.48;64.85;96416.16;5086173;28;20036;-76
2021/05/24 00:18:07;;;;;;;0.57;0.57;;;;;;;7.45;64.80;96419.13;5079229;28;20024;-75
2021/05/24 00:20:37;;;;;;;1.90;0.73;;;;;;;7.43;65.16;96424.56;5080877;28;20039;-75
2021/05/24 00:23:05;;;;;;;2.28;0.80;;;;;;;7.43;65.06;96431.56;5084310;28;20028;-75
2021/05/24 00:25:31;;;;;;;1.80;0.60;;;;;;;7.41;65.19;96436.19;5086774;28;20488;-75
2021/05/24 00:27:58;;;;;;;0.88;0.88;;;;;;;7.37;65.16;96429.75;5078909;28;20032;-75
2021/05/24 00:30:26;;;;;;;0.70;0.70;;;;;;;7.32;65.26;96428.53;5079675;28;20048;-75
2021/05/24 00:32:53;;;;;;;0.73;0.70;;;;;;;7.30;65.46;96424.53;5080345;28;20045;-76
2021/05/24 00:35:19;;;;;;;1.95;0.73;;;;;;;7.27;65.49;96407.47;5087740;28;20469;-75
2021/05/24 00:38:06;;;;;;;1.55;0.80;;;;;;;7.25;65.77;96404.25;5088837;28;20055;-75
2021/05/24 00:40:36;;;;;;;0.82;0.70;;;;;;;7.22;65.87;96391.59;5087127;28;20051;-75
2021/05/24 00:43:04;;;;;;;0.85;0.85;;;;;;;7.21;65.99;96391.81;5083661;28;20479;-75
2021/05/24 00:45:31;;;;;;;0.65;0.60;;;;;;;7.19;66.04;96386.78;5081764;28;20423;-75
2021/05/24 00:47:57;;;;;;;0.95;0.88;;;;;;;7.17;66.18;96386.19;5088048;28;20035;-75
2021/05/24 00:50:23;;;;;;;0.80;0.75;;;;;;;7.16;66.20;96386.38;5087144;28;20040;-75
2021/05/24 00:52:50;;;;;;;0.68;0.68;;;;;;;7.15;66.06;96384.78;5085298;28;20039;-75
2021/05/24 00:55:16;;;;;;;0.70;0.70;;;;;;;7.13;66.29;96392.00;5095764;28;20047;-75
2021/05/24 00:57:44;;;;;;;0.60;0.60;;;;;;;7.11;66.46;96390.38;5083542;28;20036;-76
2021/05/24 01:00:15;;;;;;;1.00;0.80;;;;;;;7.08;66.87;96390.78;5084967;28;20507;-75
2021/05/24 01:02:41;;;;;;;0.60;0.60;;;;;;;7.07;66.65;96386.56;5085738;28;20032;-76
2021/05/24 01:05:08;;;;;;;1.17;0.80;;;;;;;7.06;66.53;96373.72;5086214;28;20036;-75
2021/05/24 01:07:34;;;;;;;0.73;0.73;;;;;;;7.05;66.80;96380.72;5079347;28;20045;-75
2021/05/24 01:10:01;;;;;;;0.80;0.80;;;;;;;7.03;67.01;96377.50;5087798;28;20036;-75
2021/05/24 01:12:27;;;;;;;2.33;0.90;;;;;;;7.03;66.88;96376.72;5088183;28;20037;-75
2021/05/24 01:14:53;;;;;;;1.58;0.80;;;;;;;7.01;66.89;96363.88;5083078;28;20396;-75
2021/05/24 01:17:20;;;;;;;1.30;0.77;;;;;;;6.99;66.97;96360.69;5085553;28;20400;-75
2021/05/24 01:19:47;;;;;;;0.85;0.85;;;;;;;6.98;67.42;96348.63;5084939;28;20473;-75
2021/05/24 01:22:18;;;;;;;1.00;0.80;;;;;;;6.96;67.30;96347.22;5089564;28;20055;-75
2021/05/24 01:24:49;;;;;;;1.10;1.00;;;;;;;6.92;67.44;96344.22;5083875;28;20036;-75
2021/05/24 01:27:22;;;;;;;0.70;0.70;;;;;;;6.90;67.42;96339.19;5078102;28;20036;-75
2021/05/24 01:29:48;;;;;;;1.02;1.02;;;;;;;6.88;67.40;96337.78;5086363;28;20396;-75
2021/05/24 01:32:14;;;;;;;1.25;1.00;;;;;;;6.88;67.60;96340.38;5088925;28;20047;-75
2021/05/24 01:34:46;;;;;;;0.73;0.73;;;;;;;6.87;67.57;96350.00;5086047;28;20048;-75
2021/05/24 01:37:13;;;;;;;0.90;0.90;;;;;;;6.85;67.76;96340.78;5088590;28;20036;-75
2021/05/24 01:39:39;;;;;;;0.98;0.88;;;;;;;6.84;67.90;96333.94;5078570;28;20514;-75
2021/05/24 01:42:06;;;;;;;1.55;0.90;;;;;;;6.81;67.99;96342.97;5085961;28;20053;-75
2021/05/24 01:44:36;;;;;;;0.82;0.82;;;;;;;6.82;68.06;96354.19;5091681;28;20044;-75
2021/05/24 01:47:03;;;;;;;0.98;0.80;;;;;;;6.81;67.85;96350.00;5083041;28;20036;-75
2021/05/24 01:49:32;;;;;;;1.25;1.13;;;;;;;6.79;68.19;96350.19;5081293;28;20035;-75
2021/05/24 01:51:58;;;;;;;0.90;0.90;;;;;;;6.76;68.26;96334.97;5085460;28;20044;-75
2021/05/24 01:54:25;;;;;;;0.88;0.88;;;;;;;6.74;68.31;96318.72;5084196;28;20043;-76
2021/05/24 01:56:51;;;;;;;0.90;0.90;;;;;;;6.71;68.39;96327.69;5082852;28;20392;-75
2021/05/24 01:59:17;;;;;;;0.80;0.80;;;;;;;6.70;68.32;96340.94;5081755;28;20040;-75
2021/05/24 02:01:44;;;;;;;1.42;0.85;;;;;;;6.68;68.40;96342.94;5084891;28;20033;-75
2021/05/24 02:04:10;;;;;;;0.80;0.80;;;;;;;6.68;68.54;96335.13;5088275;28;20036;-75
2021/05/24 02:06:37;;;;;;;1.45;0.95;;;;;;;6.65;68.61;96331.09;5081675;28;20468;-75
2021/05/24 02:09:04;;;;;;;0.82;0.80;;;;;;;6.59;68.76;96321.44;5079780;28;20028;-75
2021/05/24 02:11:30;;;;;;;1.02;1.00;;;;;;;6.55;68.56;96317.66;5086447;28;20048;-75
2021/05/24 02:13:56;;;;;;;0.95;0.95;;;;;;;6.55;68.76;96319.44;5087016;28;20044;-75
2021/05/24 02:16:39;;;;;;;1.00;1.00;;;;;;;6.54;69.37;96310.03;5080591;28;20044;-75
2021/05/24 02:19:07;;;;;;;1.60;0.80;;;;;;;6.51;68.93;96313.81;5086454;28;20056;-75
2021/05/24 02:21:34;;;;;;;0.95;0.95;;;;;;;6.48;69.06;96315.00;5087377;28;20370;-76
2021/05/24 02:24:00;;;;;;;1.15;1.10;;;;;;;6.50;69.05;96313.00;5077878;28;20484;-75
2021/05/24 02:26:26;;;;;;;0.77;0.77;;;;;;;6.48;69.23;96304.59;5084687;28;20045;-76
2021/05/24 02:28:53;;;;;;;0.80;0.80;;;;;;;6.46;69.27;96303.16;5089862;28;20040;-75
2021/05/24 02:31:20;;;;;;;0.80;0.68;;;;;;;6.44;69.37;96300.75;5081470;28;20036;-75
2021/05/24 02:33:47;;;;;;;1.00;0.90;;;;;;;6.45;69.35;96298.97;5083083;28;20029;-76
2021/05/24 02:36:14;;;;;;;0.82;0.82;;;;;;;6.42;69.49;96307.16;5085717;28;20392;-76
2021/05/24 02:38:41;;;;;;;1.48;1.10;;;;;;;6.42;69.61;96300.16;5093000;28;20415;-76
2021/05/24 02:41:07;;;;;;;1.02;1.00;;;;;;;6.41;69.65;96287.34;5085897;28;20044;-76
2021/05/24 02:43:33;;;;;;;0.90;0.88;;;;;;;6.40;69.63;96275.31;5090563;28;20040;-76
2021/05/24 02:46:00;;;;;;;1.15;1.05;;;;;;;6.40;69.70;96276.09;5083367;28;20024;-76
2021/05/24 02:48:26;;;;;;;1.10;1.10;;;;;;;6.39;69.76;96266.69;5080551;28;20036;-75
2021/05/24 02:50:52;;;;;;;1.05;1.05;;;;;;;6.39;69.89;96269.28;5084073;28;20047;-76
2021/05/24 02:53:18;;;;;;;0.90;0.90;;;;;;;6.41;69.93;96279.53;5087367;28;20051;-76
2021/05/24 02:55:45;;;;;;;1.05;0.95;;;;;;;6.43;69.95;96285.34;5083536;28;20487;-76
2021/05/24 02:58:11;;;;;;;0.90;0.90;;;;;;;6.44;70.05;96285.13;5078144;28;20040;-76
2021/05/24 03:00:37;;;;;;;0.90;0.90;;;;;;;6.43;70.19;96287.94;5078405;28;20048;-76
2021/05/24 03:03:03;;;;;;;1.30;1.20;;;;;;;6.40;70.29;96286.50;5082936;28;20043;-75
2021/05/24 03:05:29;;;;;;;0.93;0.93;;;;;;;6.39;70.27;96284.91;5084093;28;20047;-76
2021/05/24 03:07:56;;;;;;;1.20;1.10;;;;;;;6.39;70.26;96284.13;5088621;28;20052;-76
2021/05/24 03:10:24;;;;;;;1.00;0.88;;;;;;;6.38;70.46;96287.72;5083775;28;20062;-76
2021/05/24 03:12:51;;;;;;;0.82;0.82;;;;;;;6.38;70.51;96285.09;5086198;28;20043;-76
2021/05/24 03:15:19;;;;;;;1.00;1.00;;;;;;;6.37;70.51;96288.72;5078091;28;20044;-76
2021/05/24 03:17:45;;;;;;;0.82;0.82;;;;;;;6.37;70.77;96296.53;5083615;28;20052;-76
2021/05/24 03:20:14;;;;;;;0.82;0.82;;;;;;;6.36;70.54;96295.72;5089618;28;20048;-76
2021/05/24 03:22:41;;;;;;;0.88;0.88;;;;;;;6.36;70.70;96285.28;5081023;28;20048;-76
2021/05/24 03:25:09;;;;;;;2.25;1.33;;;;;;;6.35;70.83;96290.72;5084001;28;20044;-76
2021/05/24 03:27:35;;;;;;;0.95;0.95;;;;;;;6.35;70.89;96282.91;5087671;28;20036;-75
2021/05/24 03:30:03;;;;;;;1.25;1.00;;;;;;;6.33;71.09;96285.69;5088992;28;20040;-75
2021/05/24 03:32:29;;;;;;;0.98;0.98;;;;;;;6.35;70.88;96277.69;5081032;28;20042;-75
2021/05/24 03:34:56;;;;;;;1.27;0.93;;;;;;;6.32;70.94;96275.47;5079246;28;20048;-76
2021/05/24 03:37:23;;;;;;;0.93;0.90;;;;;;;6.32;71.13;96278.06;5089184;28;20052;-76
2021/05/24 03:39:49;;;;;;;1.73;1.30;;;;;;;6.31;71.26;96269.47;5086478;28;20051;-76
2021/05/24 03:42:15;;;;;;;0.80;0.70;;;;;;;6.28;71.34;96262.84;5081253;28;20040;-76
2021/05/24 03:44:43;;;;;;;1.15;0.93;;;;;;;6.29;71.51;96263.66;5077018;28;20040;-76
2021/05/24 03:47:11;;;;;;;0.90;0.90;;;;;;;6.27;71.44;96263.84;5084542;28;20051;-76
2021/05/24 03:49:39;;;;;;;0.98;0.98;;;;;;;6.27;71.44;96263.03;5084818;28;20393;-76
2021/05/24 03:52:05;;;;;;;1.20;1.08;;;;;;;6.26;71.55;96271.88;5082886;28;20044;-76
2021/05/24 03:54:32;;;;;;;1.20;1.15;;;;;;;6.25;71.73;96271.03;5084460;28;20040;-76
2021/05/24 03:56:58;;;;;;;1.10;0.95;;;;;;;6.25;71.79;96268.44;5077161;28;20032;-76
2021/05/24 03:59:24;;;;;;;1.20;1.10;;;;;;;6.26;71.56;96271.88;5080396;28;20048;-76
2021/05/24 04:01:50;;;;;;;0.90;0.90;;;;;;;6.26;71.65;96280.47;5081967;28;20040;-75
2021/05/24 04:04:17;;;;;;;1.35;0.98;;;;;;;6.26;71.84;96277.06;5089117;28;20469;-76
2021/05/24 04:06:48;;;;;;;2.05;1.00;;;;;;;6.28;72.19;96267.25;5081769;28;20047;-75
2021/05/24 04:09:14;;;;;;;0.90;0.90;;;;;;;6.29;72.01;96272.25;5079865;28;20044;-76
2021/05/24 04:11:41;;;;;;;1.42;1.00;;;;;;;6.29;72.00;96272.25;5091029;28;20028;-76
2021/05/24 04:14:07;;;;;;;1.05;1.05;;;;;;;6.28;72.06;96270.66;5088927;28;20040;-75
2021/05/24 04:16:34;;;;;;;1.25;1.13;;;;;;;6.30;72.29;96257.47;5085649;28;20047;-75
2021/05/24 04:19:06;;;;;;;1.20;1.10;;;;;;;6.30;72.31;96267.88;5085115;28;20036;-76
2021/05/24 04:21:33;;;;;;;1.27;1.15;;;;;;;6.31;72.33;96253.84;5089279;28;20048;-76
2021/05/24 04:23:59;;;;;;;1.65;0.95;;;;;;;6.33;72.33;96249.25;5088432;28;20036;-76
2021/05/24 04:26:26;;;;;;;0.80;0.80;;;;;;;6.35;72.25;96254.25;5086801;28;20051;-75
2021/05/24 04:28:52;;;;;;;1.02;1.02;;;;;;;6.39;72.38;96263.28;5086572;28;20154;-75
2021/05/24 04:31:18;;;;;;;1.00;1.00;;;;;;;6.39;72.52;96256.28;5087520;28;20059;-76
2021/05/24 04:33:44;;;;;;;1.23;0.90;;;;;;;6.39;72.41;96256.28;5077640;28;20047;-76
2021/05/24 04:36:10;;;;;;;0.70;0.70;;;;;;;6.40;72.38;96263.06;5085795;28;20067;-75
2021/05/24 04:38:37;;;;;;;0.90;0.88;;;;;;;6.44;72.43;96255.69;5085525;28;20047;-76
2021/05/24 04:41:03;;;;;;;0.80;0.80;;;;;;;6.47;72.56;96250.09;5086272;28;20055;-76
2021/05/24 04:43:32;;;;;;;1.00;0.90;;;;;;;6.51;72.51;96261.72;5084520;28;20036;-75
2021/05/24 04:45:58;;;;;;;1.02;0.80;;;;;;;6.53;72.69;96243.28;5094947;28;20102;-76
2021/05/24 04:48:24;;;;;;;1.20;1.10;;;;;;;6.55;72.72;96243.88;5082695;28;20052;-75
2021/05/24 04:50:51;;;;;;;0.93;0.90;;;;;;;6.57;72.60;96241.88;5087299;28;20036;-76
2021/05/24 04:53:18;;;;;;;0.90;0.80;;;;;;;6.61;72.76;96237.88;5089886;28;20048;-76
2021/05/24 04:55:44;;;;;;;0.65;0.65;;;;;;;6.64;72.88;96230.47;5089143;28;20051;-76
2021/05/24 04:58:11;;;;;;;0.70;0.70;;;;;;;6.67;73.01;96231.88;5084882;28;20032;-76
2021/05/24 05:00:38;;;;;;;1.30;0.95;;;;;;;6.71;72.95;96233.09;5081385;28;20384;-75
2021/05/24 05:03:05;;;;;;;0.70;0.70;;;;;;;6.76;73.06;96241.13;5075194;28;20056;-76
2021/05/24 05:05:33;;;;;;;1.23;1.13;;;;;;;6.82;73.08;96236.91;5095688;28;20040;-76
2021/05/24 05:08:00;;;;;;;1.77;0.90;;;;;;;6.89;73.03;96242.94;5084343;28;20393;-76
2021/05/24 05:10:27;;;;;;;1.30;0.90;;;;;;;6.93;73.13;96249.38;5084203;28;20047;-75
2021/05/24 05:12:54;;;;;;;1.00;1.00;;;;;;;6.98;73.14;96241.75;5086327;28;20040;-75
2021/05/24 05:15:23;;;;;;;1.10;1.00;;;;;;;7.03;73.44;96248.97;5089752;28;20420;-76
2021/05/24 05:17:49;;;;;;;1.00;1.00;;;;;;;7.09;73.22;96225.50;5084606;28;20055;-75
2021/05/24 05:20:15;;;;;;;0.80;0.80;;;;;;;7.17;73.20;96239.34;5083799;28;20392;-75
2021/05/24 05:22:41;;;;;;;1.15;1.05;;;;;;;7.22;73.08;96235.09;5089552;28;20036;-75
2021/05/24 05:25:09;;;;;;;0.93;0.93;;;;;;;7.28;72.98;96242.13;5088579;28;20032;-75
2021/05/24 05:27:35;;;;;;;0.90;0.90;;;;;;;7.30;72.98;96237.50;5080703;28;20044;-75
2021/05/24 05:30:02;;;;;;;0.85;0.85;;;;;;;7.38;72.95;96246.16;5087649;28;20484;-75
2021/05/24 05:32:29;;;;;;;1.10;1.10;;;;;;;7.42;73.01;96239.53;5086608;28;20040;-75
2021/05/24 05:34:55;;;;;;;2.38;1.00;;;;;;;7.44;73.01;96232.31;5086598;28;20055;-76
2021/05/24 05:37:22;;;;;;;1.20;1.10;;;;;;;7.47;72.89;96235.28;5081136;28;20059;-75
2021/05/24 05:39:53;;;;;;;2.42;0.95;;;;;;;7.51;73.13;96223.44;5085369;28;20409;-75
2021/05/24 05:42:20;;;;;;;0.90;0.90;;;;;;;7.55;72.95;96226.44;5087122;28;20048;-75
2021/05/24 05:44:48;;;;;;;1.00;1.00;;;;;;;7.58;72.97;96214.78;5086094;28;20044;-75
2021/05/24 05:47:14;;;;;;;0.98;0.98;;;;;;;7.62;73.02;96216.00;5079059;28;20053;-75
2021/05/24 05:49:41;;;;;;;1.20;1.10;;;;;;;7.63;72.94;96210.56;5085438;28;20048;-76
2021/05/24 05:52:07;;;;;;;0.80;0.80;;;;;;;7.69;72.92;96212.38;5090253;28;20048;-75
2021/05/24 05:54:34;;;;;;;1.00;1.00;;;;;;;7.75;73.25;96210.75;5085716;28;20055;-75
2021/05/24 05:57:00;;;;;;;1.00;1.00;;;;;;;7.82;72.97;96210.72;5082507;28;20420;-75
2021/05/24 05:59:29;;;;;;;1.30;1.20;;;;;;;7.86;72.98;96196.25;5081677;28;20037;-75
2021/05/24 06:01:55;;;;;;;1.30;1.20;;;;;;;7.92;72.85;96195.44;5087365;28;20035;-75
2021/05/24 06:04:21;;;;;;;2.80;2.60;;;;;;;7.97;72.80;96198.22;5086317;28;20059;-76
2021/05/24 06:06:47;;;;;;;1.60;1.50;;;;;;;8.01;72.79;96196.78;5082369;28;20044;-76
2021/05/24 06:09:13;;;;;;;1.35;1.25;;;;;;;8.04;72.60;96200.78;5086817;28;20055;-75
2021/05/24 06:11:40;;;;;;;1.30;1.20;;;;;;;8.05;72.47;96210.25;5087425;28;20040;-76
2021/05/24 06:14:06;;;;;;;1.60;1.38;;;;;;;8.04;72.55;96209.47;5084071;28;20040;-75
2021/05/24 06:16:32;;;;;;;1.10;1.10;;;;;;;8.04;72.63;96208.63;5080164;28;20028;-75
2021/05/24 06:18:58;;;;;;;1.45;1.00;;;;;;;8.00;72.46;96212.66;5086554;28;20468;-75
2021/05/24 06:21:25;;;;;;;1.30;1.20;;;;;;;7.99;72.43;96206.66;5084644;28;20040;-76
2021/05/24 06:23:51;;;;;;;0.90;0.90;;;;;;;7.99;72.46;96204.03;5088433;28;20040;-75
2021/05/24 06:26:17;;;;;;;0.85;0.80;;;;;;;7.98;72.30;96202.44;5084493;28;20399;-75
2021/05/24 06:28:43;;;;;;;1.30;1.20;;;;;;;7.97;72.27;96206.03;5085232;28;20047;-75
2021/05/24 06:31:09;;;;;;;1.50;1.40;;;;;;;8.04;72.34;96200.78;5083321;28;20408;-75
2021/05/24 06:33:35;;;;;;;3.00;2.80;;;;;;;8.12;72.33;96198.75;5083372;28;20044;-75
2021/05/24 06:36:02;;;;;;;9.15;8.25;;;;;;;8.21;72.20;96198.50;5083344;28;20067;-75
2021/05/24 06:38:28;;;;;;;8.65;7.95;;;;;;;8.30;72.40;96205.09;5087881;28;20051;-75
2021/05/24 06:40:55;;;;;;;14.18;12.90;;;;;;;8.42;72.37;96203.47;5087702;28;20041;-75
2021/05/24 06:43:23;;;;;;;24.73;22.30;;;;;;;8.54;72.35;96198.34;5086743;28;20044;-75
2021/05/24 06:45:49;;;;;;;16.83;15.32;;;;;;;8.57;72.01;96200.56;5083348;28;20470;-75
2021/05/24 06:48:16;;;;;;;13.95;12.18;;;;;;;8.70;72.09;96204.91;5081879;28;20047;-75
2021/05/24 06:50:42;;;;;;;10.88;9.93;;;;;;;8.71;71.75;96199.47;5085244;28;20044;-76
2021/05/24 06:53:08;;;;;;;6.75;6.25;;;;;;;8.73;71.66;96191.41;5086268;28;20037;-75
2021/05/24 06:55:34;;;;;;;5.60;5.10;;;;;;;8.83;71.87;96198.78;5087694;28;20063;-75
2021/05/24 06:58:01;;;;;;;3.17;2.97;;;;;;;8.99;71.97;96195.63;5084112;28;20476;-75
2021/05/24 07:00:27;;;;;;;2.97;2.70;;;;;;;9.17;71.92;96199.31;5083811;28;20397;-75
2021/05/24 07:02:53;;;;;;;1.98;1.88;;;;;;;9.34;71.67;96205.59;5082865;28;20044;-75
2021/05/24 07:05:20;;;;;;;3.80;3.50;;;;;;;9.60;71.64;96209.78;5084819;28;20044;-75
2021/05/24 07:07:46;;;;;;;2.03;1.92;;;;;;;9.82;70.96;96207.50;5076117;28;20033;-75
2021/05/24 07:10:14;;;;;;;6.45;5.85;;;;;;;9.85;70.50;96207.09;5088684;28;20040;-74
2021/05/24 07:12:40;;;;;;;1.90;1.80;;;;;;;9.83;70.17;96218.81;5082886;28;20031;-74
2021/05/24 07:15:07;;;;;;;1.70;1.60;;;;;;;9.88;70.25;96218.94;5083565;28;20366;-75
2021/05/24 07:17:34;;;;;;;3.00;2.80;;;;;;;9.91;69.74;96213.25;5087539;28;20048;-75
2021/05/24 07:20:05;;;;;;;1.85;1.35;;;;;;;9.87;69.19;96209.47;5076048;28;20061;-75
2021/05/24 07:22:31;;;;;;;1.50;1.40;;;;;;;9.78;69.22;96208.19;5082426;28;20465;-75
2021/05/24 07:24:57;;;;;;;1.55;1.45;;;;;;;9.73;69.48;96203.59;5086790;28;20032;-74
2021/05/24 07:27:24;;;;;;;1.65;1.55;;;;;;;9.63;69.21;96217.19;5083590;28;20044;-75
2021/05/24 07:29:50;;;;;;;1.30;1.20;;;;;;;9.62;69.47;96210.38;5073668;28;20039;-75
2021/05/24 07:32:17;;;;;;;1.27;1.13;;;;;;;9.68;69.81;96212.13;5082183;28;20033;-75
2021/05/24 07:34:43;;;;;;;1.42;1.33;;;;;;;9.77;69.40;96209.22;5089397;28;20052;-75
2021/05/24 07:37:10;;;;;;;1.30;1.20;;;;;;;9.81;69.24;96210.38;5081825;28;20511;-75
2021/05/24 07:39:36;;;;;;;1.52;1.42;;;;;;;9.83;69.30;96206.50;5079095;28;20505;-75
2021/05/24 07:42:05;;;;;;;2.38;2.20;;;;;;;9.80;68.82;96201.69;5083851;28;20048;-75
2021/05/24 07:44:34;;;;;;;2.38;1.60;;;;;;;9.81;68.87;96192.84;5088853;28;20055;-75
2021/05/24 07:47:01;;;;;;;1.60;1.50;;;;;;;9.84;68.85;96194.22;5079425;28;20043;-75
2021/05/24 07:49:28;;;;;;;1.30;1.30;;;;;;;9.95;69.14;96193.47;5083407;28;20040;-75
2021/05/24 07:51:55;;;;;;;1.38;1.27;;;;;;;10.10;69.14;96190.47;5080091;28;20039;-75
2021/05/24 07:54:22;;;;;;;1.23;1.23;;;;;;;10.23;68.85;96171.97;5089532;28;20036;-75
2021/05/24 07:56:48;;;;;;;3.40;3.20;;;;;;;10.34;68.46;96173.06;5082492;28;20047;-75
2021/05/24 07:59:14;;;;;;;2.20;2.00;;;;;;;10.39;68.31;96175.00;5081299;28;20392;-75
2021/05/24 08:01:41;;;;;;;1.35;1.35;;;;;;;10.40;68.09;96179.25;5078065;28;20036;-75
2021/05/24 08:04:07;;;;;;;1.90;1.42;;;;;;;10.47;68.01;96177.31;5087462;28;20056;-75
2021/05/24 08:06:33;;;;;;;1.27;1.17;;;;;;;10.61;68.35;96180.56;5083111;28;20212;-75
2021/05/24 08:09:00;;;;;;;1.40;1.30;;;;;;;10.76;67.98;96171.22;5083945;28;20059;-75
2021/05/24 08:11:26;;;;;;;1.50;1.40;;;;;;;10.93;67.65;96167.94;5079798;28;20032;-75
2021/05/24 08:13:53;;;;;;;3.17;2.97;;;;;;;11.13;67.36;96173.69;5085051;28;20032;-75
2021/05/24 08:16:21;;;;;;;1.80;1.48;;;;;;;11.42;67.17;96175.59;5083608;28;20051;-75
2021/05/24 08:18:48;;;;;;;1.30;1.20;;;;;;;11.70;66.81;96173.06;5082504;28;20063;-75
2021/05/24 08:21:15;;;;;;;1.95;1.33;;;;;;;11.92;66.03;96164.59;5079980;28;20039;-75
2021/05/24 08:23:45;;;;;;;1.10;1.10;;;;;;;12.08;64.77;96163.84;5079632;28;20051;-75
2021/05/24 08:26:12;;;;;;;2.00;1.40;;;;;;;12.21;64.85;96162.78;5084113;28;20047;-75
2021/05/24 08:28:39;;;;;;;1.10;1.10;;;;;;;12.28;64.49;96165.25;5085017;28;20060;-75
2021/05/24 08:31:06;;;;;;;1.90;1.00;;;;;;;12.26;64.19;96159.44;5092780;28;20496;-75
2021/05/24 08:33:33;;;;;;;1.00;1.00;;;;;;;12.32;63.91;96151.41;5088165;28;20044;-75
2021/05/24 08:35:59;;;;;;;1.00;0.80;;;;;;;12.46;63.24;96145.88;5078410;28;20397;-75
2021/05/24 08:38:26;;;;;;;1.05;0.90;;;;;;;12.64;63.08;96136.94;5084530;28;20044;-75
2021/05/24 08:40:53;;;;;;;0.95;0.93;;;;;;;12.85;62.61;96130.16;5083700;28;20051;-75
2021/05/24 08:43:19;;;;;;;1.85;1.38;;;;;;;12.95;62.06;96119.81;5089840;28;20040;-75
2021/05/24 08:45:46;;;;;;;1.20;0.60;;;;;;;13.02;61.38;96119.63;5092237;28;20040;-75
2021/05/24 08:48:12;;;;;;;0.70;0.70;;;;;;;13.27;61.54;96119.19;5092796;28;20059;-75
2021/05/24 08:50:40;;;;;;;1.30;0.90;;;;;;;13.48;60.60;96110.59;5087448;28;20054;-75
2021/05/24 08:53:09;;;;;;;1.27;0.70;;;;;;;13.62;60.25;96105.72;5090370;28;20043;-75
2021/05/24 08:55:35;;;;;;;0.63;0.60;;;;;;;13.63;59.55;96088.06;5091434;28;20511;-75
2021/05/24 08:58:02;;;;;;;0.60;0.60;;;;;;;13.69;59.48;96095.00;5094318;28;20044;-75
2021/05/24 09:00:28;;;;;;;0.55;0.50;;;;;;;13.72;58.82;96079.50;5094763;28;20040;-75
2021/05/24 09:02:56;;;;;;;0.47;0.47;;;;;;;13.86;58.85;96068.56;5079461;28;20036;-74
2021/05/24 09:05:29;;;;;;;0.60;0.60;;;;;;;14.01;57.80;96055.56;5094354;28;20055;-75
2021/05/24 09:08:00;;;;;;;0.80;0.70;;;;;;;14.13;56.36;96044.84;5095625;28;20460;-75
2021/05/24 09:10:29;;;;;;;1.23;0.70;;;;;;;14.21;57.79;96039.94;5095378;28;20400;-75
2021/05/24 09:12:56;;;;;;;0.50;0.50;;;;;;;14.36;57.65;96049.81;5083226;28;20040;-75
2021/05/24 09:15:25;;;;;;;0.60;0.60;;;;;;;14.44;56.51;96039.84;5085777;28;20040;-75
2021/05/24 09:17:57;;;;;;;0.95;0.60;;;;;;;14.50;56.57;96039.63;5084778;28;20035;-75
2021/05/24 09:20:24;;;;;;;0.50;0.47;;;;;;;14.63;56.85;96048.19;5083480;28;20057;-75
2021/05/24 09:23:14;;;;;;;0.57;0.57;;;;;;;14.67;56.21;96031.59;5087440;28;20059;-75
2021/05/24 09:26:01;;;;;;;0.70;0.50;;;;;;;14.67;55.68;96036.88;5093284;28;20032;-75
2021/05/24 09:28:33;;;;;;;1.10;0.68;;;;;;;14.70;56.34;96040.84;5090600;28;20036;-75
2021/05/24 09:31:15;;;;;;;0.60;0.60;;;;;;;14.70;56.09;96040.84;5093725;28;20039;-75
2021/05/24 09:33:50;;;;;;;0.50;0.50;;;;;;;14.71;56.22;96034.53;5087034;28;20044;-75
2021/05/24 09:36:16;;;;;;;0.50;0.50;;;;;;;14.71;56.31;96032.66;5094828;28;20048;-75
2021/05/24 09:38:53;;;;;;;0.45;0.45;;;;;;;14.77;55.46;96022.94;5083423;28;20040;-75
2021/05/24 09:41:21;;;;;;;0.50;0.50;;;;;;;14.87;55.90;96033.56;5093884;28;20040;-74
2021/05/24 09:43:53;;;;;;;2.05;0.50;;;;;;;15.02;55.79;96032.88;5083747;28;20028;-75
2021/05/24 09:46:24;;;;;;;0.50;0.50;;;;;;;15.24;55.00;96016.84;5093640;28;20044;-75
2021/05/24 09:49:01;;;;;;;0.40;0.40;;;;;;;15.26;54.32;96000.75;5087763;28;20048;-74
2021/05/24 09:51:30;;;;;;;0.63;0.63;;;;;;;15.34;55.07;96013.47;5079001;28;20059;-74
2021/05/24 09:54:17;;;;;;;0.50;0.50;;;;;;;15.37;54.83;96008.47;5088821;28;20039;-74
2021/05/24 09:56:47;;;;;;;0.55;0.52;;;;;;;15.44;54.84;96005.56;5086726;28;20093;-74
2021/05/24 09:59:24;;;;;;;3.22;0.55;;;;;;;15.59;54.36;96010.13;5085708;28;20055;-74
2021/05/24 10:01:58;;;;;;;0.40;0.40;;;;;;;15.69;54.48;96004.84;5085153;28;20040;-74
2021/05/24 10:04:28;;;;;;;0.57;0.57;;;;;;;15.67;54.11;95985.81;5092622;28;20043;-74
2021/05/24 10:06:55;;;;;;;0.52;0.52;;;;;;;15.63;54.22;95982.09;5094821;28;20274;-74
2021/05/24 10:09:22;;;;;;;0.50;0.50;;;;;;;15.64;54.38;95978.38;5082424;28;20036;-74
2021/05/24 10:11:51;;;;;;;0.40;0.40;;;;;;;15.68;54.07;95968.88;5083540;28;20055;-74
2021/05/24 10:14:20;;;;;;;0.57;0.50;;;;;;;15.71;54.04;95971.03;5089563;28;20035;-74
2021/05/24 10:16:49;;;;;;;0.50;0.50;;;;;;;15.78;54.15;95966.28;5087845;28;20047;-74
2021/05/24 10:19:20;;;;;;;0.75;0.60;;;;;;;15.86;53.79;95962.34;5084849;28;20476;-74
2021/05/24 10:21:48;;;;;;;0.73;0.50;;;;;;;15.95;53.80;95962.63;5084691;28;20031;-74
2021/05/24 10:24:16;;;;;;;0.40;0.40;;;;;;;15.92;53.32;95971.09;5083568;28;20044;-75
2021/05/24 10:26:44;;;;;;;0.40;0.40;;;;;;;15.84;53.41;95964.47;5085039;28;20389;-74
2021/05/24 10:29:11;;;;;;;1.70;0.43;;;;;;;15.83;53.46;95961.03;5086613;28;20035;-74
2021/05/24 10:31:38;;;;;;;0.50;0.40;;;;;;;15.85;53.24;95957.31;5082133;28;20043;-74
2021/05/24 10:34:21;;;;;;;0.40;0.40;;;;;;;15.89;52.75;95947.81;5078950;28;20059;-74
2021/05/24 10:37:09;;;;;;;1.58;0.50;;;;;;;15.99;52.81;95948.59;5075456;28;20055;-75
2021/05/24 10:39:52;;;;;;;0.75;0.45;;;;;;;16.12;51.92;95935.91;5089349;28;20028;-75
2021/05/24 10:42:42;;;;;;;0.63;0.40;;;;;;;16.13;50.76;95921.63;5084472;28;20044;-74
2021/05/24 10:45:35;;;;;;;0.40;0.40;;;;;;;16.06;50.70;95921.88;5074969;28;20154;-74
2021/05/24 10:48:01;;;;;;;0.30;0.30;;;;;;;16.15;52.31;95938.03;5074360;28;20401;-75
2021/05/24 10:50:32;;;;;;;0.80;0.60;;;;;;;16.20;52.04;95930.09;5087874;28;20393;-75
2021/05/24 10:52:59;;;;;;;0.73;0.30;;;;;;;16.28;51.84;95929.53;5084889;28;20028;-74
2021/05/24 10:55:25;;;;;;;1.50;0.40;;;;;;;16.34;51.76;95917.13;5081327;28;20028;-75
2021/05/24 10:58:14;;;;;;;0.32;0.30;;;;;;;16.42;50.44;95913.91;5081625;28;20460;-74
2021/05/24 11:01:01;;;;;;;0.70;0.40;;;;;;;16.54;51.43;95924.19;5085501;28;20039;-75
2021/05/24 11:03:28;;;;;;;0.30;0.30;;;;;;;16.61;51.26;95908.84;5083116;28;20055;-75
2021/05/24 11:06:07;;;;;;;0.50;0.50;;;;;;;16.64;50.30;95903.00;5085876;28;20047;-74
2021/05/24 11:08:39;;;;;;;0.25;0.20;;;;;;;16.70;51.00;95912.50;5082562;28;20032;-74
2021/05/24 11:11:25;;;;;;;0.32;0.32;;;;;;;16.80;49.75;95898.47;5081274;28;20483;-74
2021/05/24 11:13:52;;;;;;;0.50;0.50;;;;;;;17.07;50.77;95903.38;5078898;28;20481;-74
2021/05/24 11:16:19;;;;;;;0.75;0.45;;;;;;;17.33;50.00;95884.72;5088361;28;20070;-74
2021/05/24 11:18:46;;;;;;;0.30;0.30;;;;;;;17.54;49.14;95875.56;5088544;28;20028;-74
2021/05/24 11:21:18;;;;;;;0.35;0.35;;;;;;;17.88;48.09;95874.81;5078571;28;20032;-74
2021/05/24 11:29:14;;;;;;;0.57;0.57;;;;;;;19.13;45.76;95875.88;5086396;28;20032;-75
2021/05/24 11:31:46;;;;;;;0.32;0.32;;;;;;;19.61;42.62;95881.03;5085177;28;20039;-75
2021/05/24 11:34:26;;;;;;;0.95;0.30;;;;;;;19.50;43.02;95892.91;5085139;28;20029;-74
2021/05/24 11:37:13;;;;;;;0.30;0.30;;;;;;;19.56;40.33;95867.84;5083542;28;20045;-74
2021/05/24 11:39:49;;;;;;;0.40;0.40;;;;;;;19.53;42.69;95895.00;5085038;28;20476;-75
2021/05/24 11:42:22;;;;;;;2.25;1.35;;;;;;;19.83;42.61;95888.47;5083474;28;20392;-75
2021/05/24 11:44:50;;;;;;;0.73;0.47;;;;;;;19.90;42.78;95878.22;5094719;28;20043;-74
2021/05/24 11:47:19;;;;;;;0.22;0.22;;;;;;;20.12;42.84;95879.50;5080904;28;20040;-74
2021/05/24 11:49:48;;;;;;;0.38;0.20;;;;;;;20.36;42.17;95879.31;5091370;28;20032;-74